Time;durP1;ratioP1;P1;durP2;ratioP2;P2;SDS_P1;SDS_P2;PMS_P1;PMS_P2;Temp;Humidity;BMP_temperature;BMP_pressure;BME280_temperature;BME280_humidity;BME280_pressure;Samples;Min_cycle;Max_cycle;Signal;HPM_P1;HPM_P2
2021/07/12 00:02:29;;;;;;;1.71;1.61;;;;;;;21.21;70.87;100224.72;;;;-59
2021/07/12 00:05:29;;;;;;;1.95;1.78;;;;;;;21.20;70.84;100223.96;;;;-58
2021/07/12 00:08:29;;;;;;;1.86;1.73;;;;;;;21.21;70.90;100228.88;;;;-63
2021/07/12 00:11:29;;;;;;;1.93;1.73;;;;;;;21.20;70.87;100227.30;;;;-63
2021/07/12 00:14:29;;;;;;;2.21;1.79;;;;;;;21.20;70.91;100225.44;;;;-63
2021/07/12 00:17:29;;;;;;;3.15;1.78;;;;;;;21.20;70.85;100223.32;;;;-59
2021/07/12 00:20:29;;;;;;;1.71;1.61;;;;;;;21.20;70.92;100216.07;;;;-59
2021/07/12 00:23:29;;;;;;;2.74;1.70;;;;;;;21.19;70.86;100214.94;;;;-57
2021/07/12 00:26:29;;;;;;;1.67;1.57;;;;;;;21.19;70.81;100209.23;;;;-61
2021/07/12 00:29:29;;;;;;;1.85;1.72;;;;;;;21.19;70.88;100208.92;;;;-57
2021/07/12 00:32:29;;;;;;;2.11;1.73;;;;;;;21.19;70.90;100200.69;;;;-59
2021/07/12 00:35:29;;;;;;;1.95;1.74;;;;;;;21.18;70.88;100195.12;;;;-59
2021/07/12 00:38:29;;;;;;;2.57;1.78;;;;;;;21.18;70.83;100187.14;;;;-57
2021/07/12 00:41:29;;;;;;;1.80;1.70;;;;;;;21.17;70.86;100183.08;;;;-59
2021/07/12 00:44:29;;;;;;;2.20;1.86;;;;;;;21.17;70.86;100182.11;;;;-57
2021/07/12 00:47:29;;;;;;;1.75;1.65;;;;;;;21.17;70.90;100184.63;;;;-58
2021/07/12 00:50:29;;;;;;;1.89;1.79;;;;;;;21.17;70.83;100179.75;;;;-59
2021/07/12 00:53:29;;;;;;;1.76;1.66;;;;;;;21.17;70.84;100181.22;;;;-57
2021/07/12 00:56:29;;;;;;;2.06;1.87;;;;;;;21.17;70.85;100179.27;;;;-57
2021/07/12 00:59:29;;;;;;;2.03;1.76;;;;;;;21.17;70.83;100180.41;;;;-62
2021/07/12 01:02:29;;;;;;;1.75;1.60;;;;;;;21.16;70.81;100169.71;;;;-62
2021/07/12 01:05:31;;;;;;;1.85;1.75;;;;;;;21.16;70.86;100165.89;;;;-63
2021/07/12 01:08:29;;;;;;;1.79;1.64;;;;;;;21.15;70.83;100161.58;;;;-63
2021/07/12 01:11:29;;;;;;;1.71;1.61;;;;;;;21.15;70.83;100154.26;;;;-62
2021/07/12 01:14:29;;;;;;;1.81;1.71;;;;;;;21.15;70.80;100152.23;;;;-63
2021/07/12 01:17:29;;;;;;;1.81;1.71;;;;;;;21.15;70.87;100157.99;;;;-64
2021/07/12 01:20:35;;;;;;;2.13;1.83;;;;;;;21.15;70.77;100153.28;;;;-62
2021/07/12 01:25:29;;;;;;;1.63;1.53;;;;;;;21.14;70.78;100150.41;;;;-64
2021/07/12 01:30:29;;;;;;;1.61;1.51;;;;;;;21.14;70.80;100139.99;;;;-65
2021/07/12 01:33:29;;;;;;;1.84;1.74;;;;;;;21.13;70.78;100137.39;;;;-64
2021/07/12 01:36:29;;;;;;;1.77;1.67;;;;;;;21.13;70.83;100133.57;;;;-64
2021/07/12 01:39:29;;;;;;;1.75;1.65;;;;;;;21.13;70.80;100128.77;;;;-62
2021/07/12 01:42:29;;;;;;;1.97;1.80;;;;;;;21.12;70.84;100125.89;;;;-59
2021/07/12 01:45:29;;;;;;;2.15;1.71;;;;;;;21.12;70.93;100131.92;;;;-59
2021/07/12 01:48:29;;;;;;;1.80;1.70;;;;;;;21.12;70.91;100132.01;;;;-62
2021/07/12 01:51:29;;;;;;;1.70;1.60;;;;;;;21.12;70.78;100133.15;;;;-64
2021/07/12 01:54:29;;;;;;;1.93;1.80;;;;;;;21.12;70.80;100125.16;;;;-59
2021/07/12 01:57:29;;;;;;;1.87;1.75;;;;;;;21.11;70.83;100123.30;;;;-57
2021/07/12 02:00:29;;;;;;;2.36;1.81;;;;;;;21.12;70.86;100121.09;;;;-58
2021/07/12 02:03:29;;;;;;;1.83;1.71;;;;;;;21.12;70.80;100116.86;;;;-59
2021/07/12 02:06:29;;;;;;;2.07;1.89;;;;;;;21.11;70.81;100117.69;;;;-59
2021/07/12 02:09:29;;;;;;;1.70;1.60;;;;;;;21.11;70.82;100119.89;;;;-63
2021/07/12 02:12:29;;;;;;;2.45;1.70;;;;;;;21.11;70.73;100119.73;;;;-63
2021/07/12 02:15:29;;;;;;;1.74;1.64;;;;;;;21.11;70.79;100127.06;;;;-63
2021/07/12 02:18:29;;;;;;;1.70;1.60;;;;;;;21.11;70.80;100126.81;;;;-63
2021/07/12 02:21:32;;;;;;;2.48;1.63;;;;;;;21.11;70.75;100135.61;;;;-62
2021/07/12 02:24:30;;;;;;;1.73;1.63;;;;;;;21.10;70.79;100132.91;;;;-63
2021/07/12 02:27:31;;;;;;;1.74;1.64;;;;;;;21.11;70.78;100129.51;;;;-63
2021/07/12 02:30:29;;;;;;;1.80;1.70;;;;;;;21.10;70.81;100134.06;;;;-64
2021/07/12 02:33:29;;;;;;;1.74;1.64;;;;;;;21.09;70.80;100128.28;;;;-63
2021/07/12 02:36:29;;;;;;;1.73;1.63;;;;;;;21.09;70.81;100127.88;;;;-62
2021/07/12 02:39:29;;;;;;;1.77;1.67;;;;;;;21.09;70.87;100127.97;;;;-63
2021/07/12 02:42:29;;;;;;;1.70;1.60;;;;;;;21.09;70.76;100129.27;;;;-63
2021/07/12 02:45:29;;;;;;;2.40;1.77;;;;;;;21.09;70.73;100126.26;;;;-61
2021/07/12 02:48:29;;;;;;;1.75;1.64;;;;;;;21.09;70.83;100124.80;;;;-61
2021/07/12 02:51:29;;;;;;;1.93;1.75;;;;;;;21.08;70.79;100120.64;;;;-63
2021/07/12 02:54:30;;;;;;;1.82;1.72;;;;;;;21.08;70.75;100122.92;;;;-63
2021/07/12 02:57:29;;;;;;;1.70;1.60;;;;;;;21.08;70.77;100115.32;;;;-62
2021/07/12 03:00:29;;;;;;;1.88;1.78;;;;;;;21.08;70.81;100109.78;;;;-61
2021/07/12 03:03:29;;;;;;;1.81;1.70;;;;;;;21.07;70.78;100113.62;;;;-60
2021/07/12 03:06:29;;;;;;;1.75;1.65;;;;;;;21.08;70.74;100117.12;;;;-61
2021/07/12 03:09:29;;;;;;;1.87;1.77;;;;;;;21.07;70.76;100114.77;;;;-62
2021/07/12 03:12:30;;;;;;;1.77;1.64;;;;;;;21.07;70.82;100112.41;;;;-57
2021/07/12 03:15:29;;;;;;;1.79;1.69;;;;;;;21.07;70.79;100109.40;;;;-60
2021/07/12 03:18:29;;;;;;;1.80;1.70;;;;;;;21.06;70.73;100104.03;;;;-62
2021/07/12 03:21:29;;;;;;;1.77;1.65;;;;;;;21.06;70.78;100095.54;;;;-63
2021/07/12 03:24:29;;;;;;;2.21;1.53;;;;;;;21.06;70.74;100090.48;;;;-63
2021/07/12 03:27:29;;;;;;;1.75;1.65;;;;;;;21.06;70.71;100086.98;;;;-63
2021/07/12 03:30:29;;;;;;;1.93;1.63;;;;;;;21.06;70.80;100092.84;;;;-63
2021/07/12 03:33:29;;;;;;;1.99;1.65;;;;;;;21.06;70.66;100102.06;;;;-63
2021/07/12 03:36:29;;;;;;;1.72;1.62;;;;;;;21.06;70.67;100105.08;;;;-62
2021/07/12 03:39:29;;;;;;;1.81;1.71;;;;;;;21.05;70.77;100106.47;;;;-60
2021/07/12 03:42:29;;;;;;;1.91;1.78;;;;;;;21.05;70.74;100103.06;;;;-60
2021/07/12 03:45:29;;;;;;;1.93;1.70;;;;;;;21.06;70.70;100104.43;;;;-61
2021/07/12 03:48:29;;;;;;;1.84;1.73;;;;;;;21.05;70.78;100109.66;;;;-61
2021/07/12 03:51:29;;;;;;;1.73;1.63;;;;;;;21.05;70.66;100114.55;;;;-63
2021/07/12 03:54:29;;;;;;;1.75;1.65;;;;;;;21.04;70.73;100109.16;;;;-62
2021/07/12 03:57:29;;;;;;;1.71;1.60;;;;;;;21.05;70.71;100102.98;;;;-64
2021/07/12 04:00:29;;;;;;;1.74;1.64;;;;;;;21.04;70.68;100087.80;;;;-63
2021/07/12 04:03:29;;;;;;;1.79;1.69;;;;;;;21.04;70.66;100079.75;;;;-58
2021/07/12 04:06:30;;;;;;;1.75;1.61;;;;;;;21.04;70.65;100075.09;;;;-63
2021/07/12 04:09:29;;;;;;;1.69;1.59;;;;;;;21.04;70.69;100074.13;;;;-64
2021/07/12 04:12:29;;;;;;;1.69;1.59;;;;;;;21.04;70.72;100073.06;;;;-64
2021/07/12 04:15:29;;;;;;;1.80;1.69;;;;;;;21.04;70.73;100073.64;;;;-63
2021/07/12 04:18:29;;;;;;;1.77;1.67;;;;;;;21.03;70.64;100076.98;;;;-63
2021/07/12 04:21:29;;;;;;;1.70;1.60;;;;;;;21.03;70.75;100070.06;;;;-64
2021/07/12 04:24:29;;;;;;;1.60;1.50;;;;;;;21.03;70.72;100066.81;;;;-63
2021/07/12 04:27:29;;;;;;;1.80;1.70;;;;;;;21.03;70.73;100064.13;;;;-63
2021/07/12 04:30:29;;;;;;;1.76;1.66;;;;;;;21.03;70.64;100064.20;;;;-63
2021/07/12 04:33:29;;;;;;;1.81;1.64;;;;;;;21.02;70.68;100062.73;;;;-63
2021/07/12 04:36:29;;;;;;;1.87;1.71;;;;;;;21.02;70.67;100061.84;;;;-63
2021/07/12 04:39:29;;;;;;;1.99;1.64;;;;;;;21.01;70.74;100059.41;;;;-63
2021/07/12 04:42:30;;;;;;;1.74;1.64;;;;;;;21.02;70.66;100066.15;;;;-63
2021/07/12 04:45:29;;;;;;;1.73;1.63;;;;;;;21.02;70.75;100067.79;;;;-63
2021/07/12 04:48:29;;;;;;;1.74;1.64;;;;;;;21.01;70.69;100070.25;;;;-63
2021/07/12 04:51:29;;;;;;;1.81;1.71;;;;;;;21.01;70.76;100068.69;;;;-64
2021/07/12 04:54:29;;;;;;;1.80;1.67;;;;;;;21.01;70.72;100065.76;;;;-62
2021/07/12 04:57:29;;;;;;;1.68;1.58;;;;;;;21.00;70.69;100066.20;;;;-63
2021/07/12 05:00:29;;;;;;;2.07;1.87;;;;;;;21.01;70.75;100068.79;;;;-63
2021/07/12 05:03:29;;;;;;;1.71;1.61;;;;;;;21.01;70.69;100066.09;;;;-62
2021/07/12 05:06:29;;;;;;;1.60;1.50;;;;;;;21.01;70.70;100057.22;;;;-62
2021/07/12 05:09:29;;;;;;;2.16;1.71;;;;;;;21.00;70.64;100056.42;;;;-63
2021/07/12 05:12:29;;;;;;;2.10;1.70;;;;;;;21.01;70.72;100054.13;;;;-64
2021/07/12 05:15:29;;;;;;;1.65;1.55;;;;;;;21.01;70.74;100051.92;;;;-63
2021/07/12 05:18:29;;;;;;;1.86;1.58;;;;;;;21.00;70.68;100050.39;;;;-64
2021/07/12 05:21:30;;;;;;;1.61;1.51;;;;;;;21.00;70.71;100048.19;;;;-63
2021/07/12 05:24:29;;;;;;;2.01;1.83;;;;;;;21.01;70.72;100048.50;;;;-61
2021/07/12 05:27:29;;;;;;;1.57;1.47;;;;;;;21.00;70.72;100049.16;;;;-60
2021/07/12 05:30:29;;;;;;;1.73;1.63;;;;;;;21.00;70.68;100045.73;;;;-61
2021/07/12 05:33:29;;;;;;;1.67;1.57;;;;;;;21.00;70.69;100043.55;;;;-59
2021/07/12 05:36:29;;;;;;;1.63;1.53;;;;;;;21.00;70.70;100044.36;;;;-57
2021/07/12 05:39:29;;;;;;;1.71;1.61;;;;;;;21.00;70.63;100040.53;;;;-59
2021/07/12 05:42:29;;;;;;;1.69;1.59;;;;;;;20.99;70.64;100031.30;;;;-58
2021/07/12 05:45:29;;;;;;;1.77;1.67;;;;;;;20.99;70.61;100025.86;;;;-59
2021/07/12 05:48:29;;;;;;;1.81;1.71;;;;;;;21.01;70.75;100025.92;;;;-57
2021/07/12 05:51:29;;;;;;;3.23;1.53;;;;;;;21.02;70.82;100023.08;;;;-52
2021/07/12 05:54:29;;;;;;;2.13;1.56;;;;;;;21.05;70.96;100022.81;;;;-53
2021/07/12 05:57:29;;;;;;;3.44;1.75;;;;;;;21.06;71.07;100022.08;;;;-51
2021/07/12 06:00:29;;;;;;;1.82;1.70;;;;;;;21.08;71.21;100018.78;;;;-48
2021/07/12 06:03:29;;;;;;;1.85;1.70;;;;;;;21.10;71.16;100020.39;;;;-49
2021/07/12 06:06:29;;;;;;;2.43;1.70;;;;;;;21.11;71.27;100027.98;;;;-59
2021/07/12 06:09:29;;;;;;;2.46;1.70;;;;;;;21.11;71.14;100029.61;;;;-52
2021/07/12 06:12:29;;;;;;;2.97;1.75;;;;;;;21.12;71.34;100037.91;;;;-51
2021/07/12 06:15:29;;;;;;;1.91;1.70;;;;;;;21.13;71.29;100038.97;;;;-52
2021/07/12 06:18:29;;;;;;;2.39;1.71;;;;;;;21.12;71.20;100034.80;;;;-51
2021/07/12 06:21:29;;;;;;;2.61;1.72;;;;;;;21.12;71.22;100037.09;;;;-51
2021/07/12 06:24:29;;;;;;;1.90;1.80;;;;;;;21.11;71.16;100032.20;;;;-51
2021/07/12 06:27:29;;;;;;;2.93;2.03;;;;;;;21.11;71.06;100025.45;;;;-51
2021/07/12 06:30:29;;;;;;;4.83;2.41;;;;;;;21.14;70.40;100019.38;;;;-50
2021/07/12 06:33:29;;;;;;;5.17;2.71;;;;;;;21.08;70.37;100024.57;;;;-62
2021/07/12 06:36:29;;;;;;;5.57;2.74;;;;;;;21.09;70.46;100028.66;;;;-53
2021/07/12 06:39:29;;;;;;;4.31;2.92;;;;;;;21.02;71.28;100029.17;;;;-52
2021/07/12 06:42:29;;;;;;;4.77;2.62;;;;;;;21.01;71.21;100020.14;;;;-52
2021/07/12 06:45:29;;;;;;;4.47;2.80;;;;;;;20.99;71.67;100017.05;;;;-57
2021/07/12 06:48:29;;;;;;;3.56;2.67;;;;;;;21.01;71.74;100016.41;;;;-60
2021/07/12 06:51:29;;;;;;;4.47;2.49;;;;;;;21.02;71.78;100024.36;;;;-61
2021/07/12 06:54:29;;;;;;;3.63;2.67;;;;;;;21.04;71.75;100031.44;;;;-62
2021/07/12 06:57:29;;;;;;;4.83;2.89;;;;;;;21.05;71.75;100031.52;;;;-61
2021/07/12 07:00:31;;;;;;;3.65;2.51;;;;;;;21.07;71.53;100022.55;;;;-61
2021/07/12 07:03:29;;;;;;;3.83;2.75;;;;;;;21.07;71.51;100019.11;;;;-61
2021/07/12 07:06:29;;;;;;;3.25;2.63;;;;;;;21.08;71.53;100016.98;;;;-60
2021/07/12 07:09:29;;;;;;;2.92;2.61;;;;;;;21.08;71.38;100005.82;;;;-60
2021/07/12 07:12:29;;;;;;;7.91;2.61;;;;;;;21.09;71.40;100005.17;;;;-60
2021/07/12 07:15:29;;;;;;;3.41;2.65;;;;;;;21.09;71.27;100002.97;;;;-59
2021/07/12 07:18:29;;;;;;;2.85;2.60;;;;;;;21.09;71.30;99994.01;;;;-60
2021/07/12 07:21:29;;;;;;;3.14;2.47;;;;;;;21.11;71.25;99986.84;;;;-57
2021/07/12 07:24:29;;;;;;;4.13;2.67;;;;;;;21.13;71.27;99981.61;;;;-54
2021/07/12 07:27:29;;;;;;;2.61;2.40;;;;;;;21.14;71.31;99967.09;;;;-51
2021/07/12 07:30:29;;;;;;;4.91;2.49;;;;;;;21.16;71.26;99949.88;;;;-58
2021/07/12 07:33:29;;;;;;;3.51;2.46;;;;;;;21.17;71.21;99936.11;;;;-54
2021/07/12 07:36:29;;;;;;;2.66;2.46;;;;;;;21.16;71.30;99926.23;;;;-55
2021/07/12 07:39:29;;;;;;;4.21;2.57;;;;;;;21.17;71.30;99921.94;;;;-55
2021/07/12 07:42:29;;;;;;;3.41;2.30;;;;;;;21.17;71.29;99913.77;;;;-55
2021/07/12 07:45:29;;;;;;;2.76;2.43;;;;;;;21.17;71.24;99908.88;;;;-54
2021/07/12 07:48:29;;;;;;;3.33;2.49;;;;;;;21.16;71.10;99895.52;;;;-55
2021/07/12 07:51:29;;;;;;;2.55;2.33;;;;;;;21.16;71.11;99891.44;;;;-54
2021/07/12 07:54:29;;;;;;;3.61;2.37;;;;;;;21.16;71.03;99891.52;;;;-55
2021/07/12 07:57:29;;;;;;;2.53;2.33;;;;;;;21.17;71.09;99894.38;;;;-54
2021/07/12 08:00:29;;;;;;;3.07;2.33;;;;;;;21.17;70.99;99893.08;;;;-54
2021/07/12 08:03:29;;;;;;;3.66;2.43;;;;;;;21.16;70.93;99888.26;;;;-54
2021/07/12 08:06:29;;;;;;;3.65;2.30;;;;;;;21.17;70.99;99888.52;;;;-54
2021/07/12 08:09:29;;;;;;;2.58;2.38;;;;;;;21.17;70.99;99883.72;;;;-54
2021/07/12 08:12:29;;;;;;;2.61;2.28;;;;;;;21.17;70.90;99882.73;;;;-54
2021/07/12 08:15:29;;;;;;;3.21;2.23;;;;;;;21.17;70.99;99880.04;;;;-54
2021/07/12 08:18:29;;;;;;;2.37;2.17;;;;;;;21.17;70.84;99879.31;;;;-54
2021/07/12 08:21:29;;;;;;;2.34;2.14;;;;;;;21.17;70.97;99876.14;;;;-54
2021/07/12 08:24:29;;;;;;;2.63;2.33;;;;;;;21.16;70.96;99873.27;;;;-55
2021/07/12 08:27:30;;;;;;;2.25;2.07;;;;;;;21.17;70.82;99870.44;;;;-50
2021/07/12 08:30:29;;;;;;;7.56;2.27;;;;;;;21.18;70.89;99870.25;;;;-51
2021/07/12 08:33:29;;;;;;;4.23;2.37;;;;;;;21.17;70.93;99871.97;;;;-52
2021/07/12 08:36:29;;;;;;;2.93;2.21;;;;;;;21.18;70.94;99868.95;;;;-52
2021/07/12 08:39:29;;;;;;;2.81;2.24;;;;;;;21.17;70.90;99858.85;;;;-60
2021/07/12 08:42:29;;;;;;;3.57;2.12;;;;;;;21.17;70.90;99844.69;;;;-60
2021/07/12 08:45:29;;;;;;;5.27;2.10;;;;;;;21.17;70.80;99834.59;;;;-59
2021/07/12 08:48:29;;;;;;;2.61;2.26;;;;;;;21.18;70.81;99829.42;;;;-59
2021/07/12 08:51:29;;;;;;;2.46;2.26;;;;;;;21.18;70.87;99820.45;;;;-59
2021/07/12 08:54:30;;;;;;;2.37;2.10;;;;;;;21.17;70.82;99818.52;;;;-60
2021/07/12 08:57:29;;;;;;;2.42;2.17;;;;;;;21.18;70.71;99824.30;;;;-59
2021/07/12 09:00:29;;;;;;;4.39;2.68;;;;;;;21.20;70.84;99820.69;;;;-61
2021/07/12 09:03:29;;;;;;;3.48;2.22;;;;;;;21.19;70.80;99804.66;;;;-61
2021/07/12 09:06:29;;;;;;;5.16;2.29;;;;;;;21.18;70.79;99793.06;;;;-61
2021/07/12 09:09:29;;;;;;;2.89;2.23;;;;;;;21.19;70.80;99789.57;;;;-60
2021/07/12 09:12:29;;;;;;;3.01;2.25;;;;;;;21.19;70.79;99796.92;;;;-61
2021/07/12 09:15:29;;;;;;;3.95;2.37;;;;;;;21.19;70.71;99808.55;;;;-61
2021/07/12 09:18:29;;;;;;;3.67;2.41;;;;;;;21.19;70.66;99813.05;;;;-61
2021/07/12 09:21:29;;;;;;;2.97;2.31;;;;;;;21.18;70.76;99817.67;;;;-61
2021/07/12 09:24:29;;;;;;;3.05;2.46;;;;;;;21.19;70.63;99811.98;;;;-61
2021/07/12 09:27:29;;;;;;;2.91;2.28;;;;;;;21.18;70.72;99804.96;;;;-60
2021/07/12 09:30:29;;;;;;;2.68;2.27;;;;;;;21.18;70.70;99790.63;;;;-61
2021/07/12 09:33:29;;;;;;;3.64;2.37;;;;;;;21.19;70.57;99791.87;;;;-60
2021/07/12 09:36:29;;;;;;;2.64;2.23;;;;;;;21.18;70.68;99791.77;;;;-61
2021/07/12 09:39:29;;;;;;;3.25;2.29;;;;;;;21.19;70.63;99801.88;;;;-61
2021/07/12 09:42:30;;;;;;;2.58;2.23;;;;;;;21.18;70.64;99823.63;;;;-60
2021/07/12 09:45:32;;;;;;;2.86;2.25;;;;;;;21.18;70.60;99830.31;;;;-60
2021/07/12 09:48:29;;;;;;;2.42;2.22;;;;;;;21.19;70.58;99841.32;;;;-61
2021/07/12 09:51:29;;;;;;;2.41;2.21;;;;;;;21.19;70.63;99844.99;;;;-56
2021/07/12 09:54:33;;;;;;;2.36;2.16;;;;;;;21.18;70.65;99838.86;;;;-55
2021/07/12 09:57:29;;;;;;;3.29;2.31;;;;;;;21.18;70.54;99829.34;;;;-57
2021/07/12 10:00:29;;;;;;;3.10;2.06;;;;;;;21.18;70.52;99829.08;;;;-56
2021/07/12 10:03:29;;;;;;;2.50;2.30;;;;;;;21.18;70.50;99816.22;;;;-56
2021/07/12 10:06:29;;;;;;;3.45;2.18;;;;;;;21.18;70.61;99808.80;;;;-55
2021/07/12 10:09:29;;;;;;;2.83;2.23;;;;;;;21.19;70.52;99803.09;;;;-55
2021/07/12 10:12:29;;;;;;;6.51;2.98;;;;;;;21.19;70.61;99801.38;;;;-55
2021/07/12 10:15:29;;;;;;;2.84;2.35;;;;;;;21.19;70.56;99802.95;;;;-54
2021/07/12 10:18:29;;;;;;;5.53;3.56;;;;;;;21.19;70.62;99796.83;;;;-54
2021/07/12 10:21:29;;;;;;;5.61;3.33;;;;;;;21.19;70.63;99795.04;;;;-55
2021/07/12 10:24:29;;;;;;;6.19;3.53;;;;;;;21.18;70.61;99788.50;;;;-61
2021/07/12 10:27:29;;;;;;;5.83;3.53;;;;;;;21.19;70.63;99790.23;;;;-61
2021/07/12 10:30:29;;;;;;;6.34;3.78;;;;;;;21.20;70.63;99796.89;;;;-58
2021/07/12 10:33:29;;;;;;;6.11;3.73;;;;;;;21.21;70.68;99791.76;;;;-63
2021/07/12 10:36:29;;;;;;;10.82;5.20;;;;;;;21.23;70.85;99794.98;;;;-55
2021/07/12 10:39:29;;;;;;;10.84;5.05;;;;;;;21.25;70.96;99797.09;;;;-57
2021/07/12 10:42:29;;;;;;;9.46;5.03;;;;;;;21.27;70.87;99800.30;;;;-56
2021/07/12 10:45:29;;;;;;;10.19;5.37;;;;;;;21.27;70.92;99799.56;;;;-59
2021/07/12 10:48:29;;;;;;;10.20;5.43;;;;;;;21.28;71.06;99805.75;;;;-56
2021/07/12 10:51:32;;;;;;;11.86;5.92;;;;;;;21.30;70.96;99814.38;;;;-64
2021/07/12 10:54:29;;;;;;;15.97;6.05;;;;;;;21.29;70.96;99812.75;;;;-65
2021/07/12 10:57:30;;;;;;;12.06;6.15;;;;;;;21.28;71.07;99818.63;;;;-64
2021/07/12 11:00:29;;;;;;;10.38;6.03;;;;;;;21.28;71.07;99811.55;;;;-63
2021/07/12 11:03:29;;;;;;;11.32;5.67;;;;;;;21.28;70.96;99809.42;;;;-64
2021/07/12 11:06:29;;;;;;;11.54;5.73;;;;;;;21.27;70.99;99794.30;;;;-64
2021/07/12 11:09:29;;;;;;;11.64;6.12;;;;;;;21.27;70.95;99798.77;;;;-63
2021/07/12 11:12:29;;;;;;;9.67;5.78;;;;;;;21.27;70.86;99798.09;;;;-63
2021/07/12 11:15:29;;;;;;;8.83;5.61;;;;;;;21.27;70.84;99801.14;;;;-57
2021/07/12 11:18:29;;;;;;;9.69;5.47;;;;;;;21.26;70.89;99799.18;;;;-57
2021/07/12 11:21:29;;;;;;;10.90;6.08;;;;;;;21.27;70.83;99799.16;;;;-63
2021/07/12 11:24:29;;;;;;;9.99;5.62;;;;;;;21.27;70.74;99806.34;;;;-63
2021/07/12 11:27:29;;;;;;;10.31;5.47;;;;;;;21.27;70.72;99803.64;;;;-63
2021/07/12 11:30:29;;;;;;;9.11;5.45;;;;;;;21.27;70.67;99802.66;;;;-64
2021/07/12 11:33:29;;;;;;;10.02;5.58;;;;;;;21.27;70.64;99797.12;;;;-63
2021/07/12 11:36:29;;;;;;;10.61;5.74;;;;;;;21.27;70.65;99804.95;;;;-63
2021/07/12 11:39:29;;;;;;;9.53;5.31;;;;;;;21.27;70.63;99791.83;;;;-63
2021/07/12 11:42:29;;;;;;;10.18;5.45;;;;;;;21.27;70.63;99796.88;;;;-63
2021/07/12 11:45:29;;;;;;;10.55;5.17;;;;;;;21.26;70.52;99788.98;;;;-63
2021/07/12 11:48:29;;;;;;;9.75;5.10;;;;;;;21.26;70.67;99792.26;;;;-63
2021/07/12 11:51:29;;;;;;;10.16;5.15;;;;;;;21.26;70.65;99780.52;;;;-62
2021/07/12 11:54:29;;;;;;;10.27;5.18;;;;;;;21.26;70.57;99765.11;;;;-57
2021/07/12 11:57:29;;;;;;;7.81;4.93;;;;;;;21.26;70.51;99757.37;;;;-64
2021/07/12 12:00:29;;;;;;;8.39;4.90;;;;;;;21.26;70.51;99756.48;;;;-64
2021/07/12 12:03:29;;;;;;;8.78;4.83;;;;;;;21.26;70.44;99756.08;;;;-64
2021/07/12 12:06:29;;;;;;;10.64;5.17;;;;;;;21.26;70.50;99755.19;;;;-64
2021/07/12 12:09:29;;;;;;;9.73;5.21;;;;;;;21.26;70.54;99750.86;;;;-64
2021/07/12 12:12:29;;;;;;;8.31;5.05;;;;;;;21.25;70.56;99749.25;;;;-64
2021/07/12 12:15:29;;;;;;;10.95;4.97;;;;;;;21.25;70.60;99741.02;;;;-62
2021/07/12 12:18:30;;;;;;;9.88;5.00;;;;;;;21.26;70.64;99743.52;;;;-62
2021/07/12 12:21:29;;;;;;;7.33;4.67;;;;;;;21.29;70.69;99735.83;;;;-61
2021/07/12 12:24:29;;;;;;;12.63;5.01;;;;;;;21.31;70.78;99735.79;;;;-59
2021/07/12 12:27:29;;;;;;;9.17;4.87;;;;;;;21.33;70.85;99739.36;;;;-54
2021/07/12 12:30:29;;;;;;;7.89;4.84;;;;;;;21.34;70.80;99725.91;;;;-58
2021/07/12 12:33:29;;;;;;;7.66;4.55;;;;;;;21.36;70.86;99719.85;;;;-48
2021/07/12 12:36:29;;;;;;;11.97;4.79;;;;;;;21.37;70.89;99715.27;;;;-47
2021/07/12 12:39:29;;;;;;;11.19;4.57;;;;;;;21.38;70.87;99708.72;;;;-52
2021/07/12 12:42:29;;;;;;;8.01;4.83;;;;;;;21.39;71.03;99711.06;;;;-52
2021/07/12 12:45:29;;;;;;;8.70;4.66;;;;;;;21.40;71.15;99701.84;;;;-54
2021/07/12 12:48:29;;;;;;;8.79;4.77;;;;;;;21.42;71.44;99695.09;;;;-62
2021/07/12 12:51:29;;;;;;;9.53;4.27;;;;;;;21.44;71.27;99693.70;;;;-54
2021/07/12 12:54:29;;;;;;;8.86;4.37;;;;;;;21.45;71.52;99689.77;;;;-52
2021/07/12 12:57:29;;;;;;;12.81;4.81;;;;;;;21.46;71.62;99688.27;;;;-65
2021/07/12 13:00:29;;;;;;;8.35;4.50;;;;;;;21.45;71.27;99674.51;;;;-54
2021/07/12 13:03:29;;;;;;;10.55;4.53;;;;;;;21.46;71.40;99659.50;;;;-50
2021/07/12 13:06:29;;;;;;;9.74;4.34;;;;;;;21.46;71.34;99653.70;;;;-60
2021/07/12 13:09:29;;;;;;;7.51;4.26;;;;;;;21.47;71.31;99653.94;;;;-54
2021/07/12 13:12:29;;;;;;;9.11;4.34;;;;;;;21.48;71.34;99665.91;;;;-54
2021/07/12 13:15:29;;;;;;;8.03;4.18;;;;;;;21.50;71.31;99688.55;;;;-54
2021/07/12 13:18:29;;;;;;;9.70;4.24;;;;;;;21.52;71.34;99700.73;;;;-47
2021/07/12 13:21:29;;;;;;;9.33;4.23;;;;;;;21.52;71.36;99687.46;;;;-53
2021/07/12 13:24:29;;;;;;;9.81;4.05;;;;;;;21.54;71.45;99683.25;;;;-55
2021/07/12 13:27:29;;;;;;;9.15;4.15;;;;;;;21.54;71.41;99674.63;;;;-62
2021/07/12 13:30:29;;;;;;;10.92;4.31;;;;;;;21.55;71.42;99674.78;;;;-61
2021/07/12 13:33:29;;;;;;;12.25;4.09;;;;;;;21.55;71.10;99668.89;;;;-61
2021/07/12 13:36:29;;;;;;;6.92;3.80;;;;;;;21.55;71.32;99668.23;;;;-54
2021/07/12 13:39:29;;;;;;;9.11;3.90;;;;;;;21.55;71.11;99668.33;;;;-51
2021/07/12 13:42:29;;;;;;;7.55;4.05;;;;;;;21.55;71.24;99673.87;;;;-54
2021/07/12 13:45:29;;;;;;;9.31;3.99;;;;;;;21.55;71.16;99678.92;;;;-57
2021/07/12 13:48:29;;;;;;;9.50;4.04;;;;;;;21.56;71.33;99676.81;;;;-55
2021/07/12 13:51:29;;;;;;;10.14;3.89;;;;;;;21.57;71.19;99677.50;;;;-53
2021/07/12 13:54:29;;;;;;;12.75;4.13;;;;;;;21.56;71.47;99674.92;;;;-57
2021/07/12 13:57:29;;;;;;;7.64;4.07;;;;;;;21.59;71.35;99671.55;;;;-55
2021/07/12 14:00:29;;;;;;;10.21;3.67;;;;;;;21.59;71.34;99674.46;;;;-62
2021/07/12 14:03:30;;;;;;;9.76;3.83;;;;;;;21.60;71.52;99670.38;;;;-52
2021/07/12 14:06:29;;;;;;;6.38;3.76;;;;;;;21.60;71.25;99668.33;;;;-57
2021/07/12 14:09:29;;;;;;;12.63;3.97;;;;;;;21.61;71.25;99678.61;;;;-49
2021/07/12 14:12:29;;;;;;;8.33;4.08;;;;;;;21.63;71.44;99667.89;;;;-62
2021/07/12 14:15:29;;;;;;;11.98;3.60;;;;;;;21.61;71.29;99644.42;;;;-52
2021/07/12 14:18:29;;;;;;;10.61;4.03;;;;;;;21.59;71.23;99620.16;;;;-52
2021/07/12 14:21:29;;;;;;;11.55;3.77;;;;;;;21.59;71.26;99604.77;;;;-52
2021/07/12 14:24:29;;;;;;;13.37;3.69;;;;;;;21.59;71.26;99627.58;;;;-52
2021/07/12 14:27:29;;;;;;;9.21;3.71;;;;;;;21.58;71.24;99625.23;;;;-58
2021/07/12 14:30:29;;;;;;;7.67;3.59;;;;;;;21.58;71.08;99621.34;;;;-59
2021/07/12 14:33:29;;;;;;;8.79;3.85;;;;;;;21.57;71.21;99635.77;;;;-60
2021/07/12 14:36:29;;;;;;;8.16;3.82;;;;;;;21.56;71.07;99640.20;;;;-49
2021/07/12 14:39:29;;;;;;;10.71;3.66;;;;;;;21.58;71.09;99642.27;;;;-51
2021/07/12 14:42:29;;;;;;;11.15;3.97;;;;;;;21.59;71.18;99640.89;;;;-57
2021/07/12 14:45:29;;;;;;;10.43;3.64;;;;;;;21.59;71.12;99638.50;;;;-53
2021/07/12 14:48:29;;;;;;;6.92;3.25;;;;;;;21.61;71.10;99637.20;;;;-57
2021/07/12 14:51:29;;;;;;;9.77;3.57;;;;;;;21.61;70.76;99640.86;;;;-60
2021/07/12 14:54:30;;;;;;;8.91;3.87;;;;;;;21.60;70.98;99641.52;;;;-60
2021/07/12 14:57:29;;;;;;;8.47;3.65;;;;;;;21.58;70.87;99626.14;;;;-53
2021/07/12 15:00:29;;;;;;;8.05;3.68;;;;;;;21.59;70.91;99623.77;;;;-53
2021/07/12 15:03:29;;;;;;;7.99;3.51;;;;;;;21.58;70.90;99613.67;;;;-53
2021/07/12 15:06:29;;;;;;;9.39;3.70;;;;;;;21.58;70.91;99614.38;;;;-53
2021/07/12 15:09:29;;;;;;;9.11;3.40;;;;;;;21.58;70.85;99620.34;;;;-52
2021/07/12 15:12:29;;;;;;;6.33;3.53;;;;;;;21.57;70.77;99621.02;;;;-64
2021/07/12 15:15:29;;;;;;;9.07;3.36;;;;;;;21.58;70.90;99621.34;;;;-55
2021/07/12 15:18:29;;;;;;;7.29;3.43;;;;;;;21.59;70.97;99620.99;;;;-60
2021/07/12 15:21:29;;;;;;;8.47;3.63;;;;;;;21.60;70.99;99617.86;;;;-61
2021/07/12 15:24:29;;;;;;;8.27;3.51;;;;;;;21.61;70.98;99617.20;;;;-62
2021/07/12 15:27:29;;;;;;;13.56;3.51;;;;;;;21.62;71.00;99621.27;;;;-62
2021/07/12 15:30:29;;;;;;;8.45;3.39;;;;;;;21.63;71.03;99623.85;;;;-64
2021/07/12 15:33:29;;;;;;;9.03;3.31;;;;;;;21.64;70.95;99625.48;;;;-51
2021/07/12 15:36:29;;;;;;;9.45;3.51;;;;;;;21.66;70.90;99623.48;;;;-52
2021/07/12 15:39:29;;;;;;;5.53;3.10;;;;;;;21.66;70.91;99614.98;;;;-58
2021/07/12 15:42:29;;;;;;;6.25;3.21;;;;;;;21.68;71.07;99618.48;;;;-54
2021/07/12 15:45:29;;;;;;;9.15;3.56;;;;;;;21.67;70.94;99615.62;;;;-54
2021/07/12 15:48:29;;;;;;;6.27;3.16;;;;;;;21.68;70.96;99609.25;;;;-53
2021/07/12 15:51:29;;;;;;;5.29;2.86;;;;;;;21.68;70.88;99613.97;;;;-59
2021/07/12 15:54:30;;;;;;;8.33;3.25;;;;;;;21.69;71.04;99614.88;;;;-52
2021/07/12 15:57:29;;;;;;;6.50;3.09;;;;;;;21.69;71.08;99614.31;;;;-59
2021/07/12 16:00:29;;;;;;;6.73;2.97;;;;;;;21.69;71.03;99606.97;;;;-58
2021/07/12 16:03:29;;;;;;;6.27;3.09;;;;;;;21.70;70.96;99613.86;;;;-52
2021/07/12 16:06:29;;;;;;;5.95;3.01;;;;;;;21.70;71.07;99616.80;;;;-52
2021/07/12 16:09:29;;;;;;;4.91;3.25;;;;;;;21.72;71.04;99609.04;;;;-51
2021/07/12 16:12:29;;;;;;;6.35;3.23;;;;;;;21.73;70.90;99604.22;;;;-54
2021/07/12 16:15:29;;;;;;;7.69;3.21;;;;;;;21.70;70.96;99602.20;;;;-53
2021/07/12 16:18:29;;;;;;;5.24;2.94;;;;;;;21.69;70.95;99601.50;;;;-54
2021/07/12 16:21:29;;;;;;;6.15;2.94;;;;;;;21.69;70.92;99605.59;;;;-62
2021/07/12 16:24:29;;;;;;;6.48;3.25;;;;;;;21.68;70.89;99607.53;;;;-61
2021/07/12 16:27:29;;;;;;;6.94;3.28;;;;;;;21.68;70.77;99604.85;;;;-61
2021/07/12 16:30:29;;;;;;;4.70;2.85;;;;;;;21.67;70.81;99606.09;;;;-59
2021/07/12 16:33:29;;;;;;;7.49;2.74;;;;;;;21.66;70.81;99613.53;;;;-53
2021/07/12 16:36:29;;;;;;;5.83;2.75;;;;;;;21.66;70.75;99613.53;;;;-53
2021/07/12 16:39:29;;;;;;;4.90;2.85;;;;;;;21.65;70.77;99602.70;;;;-62
2021/07/12 16:42:30;;;;;;;8.45;2.87;;;;;;;21.63;70.84;99593.52;;;;-59
2021/07/12 16:45:29;;;;;;;4.99;2.83;;;;;;;21.64;70.69;99588.53;;;;-59
2021/07/12 16:48:29;;;;;;;4.87;2.70;;;;;;;21.63;70.72;99583.67;;;;-62
2021/07/12 16:51:29;;;;;;;4.91;2.87;;;;;;;21.62;70.71;99586.45;;;;-59
2021/07/12 16:54:29;;;;;;;6.72;2.93;;;;;;;21.61;70.65;99585.81;;;;-62